Thunder radar more information blitzortung!


Radar de pluja more information rain snow radar


Visita la nostra xarxa de llocs de meteo:

Template documentation
and downloads

And another site



No particular awareness of the weather is required.    There are no Weather-warnings

Pagina Historial Weather Underground text

Diari Resum Desembre 22, 2017 Unitats:  Mètric    Imperial   Tant
« Previous Dia
SegĂźent Dia »
Diari Setmana Mensual Anual Personalitzada
  Maxima: Minima: Media:
Temperatura: -17.8 °C -15.3 °C -12.7 °C
Punt de rosada: -17.8 °C -18.5 °C -16.8 °C
Humitat: Humidity % 55 % 60 %
Wind Speed: 0 km/h 0 km/h 5.8 km/h
RĂ fegues de vent: 0 km/h - -
Vent:- - SE
Pression baro: 0 hPa 34841.9 hPa -
Precipitacions: 0 mm    
Historical Graphs
 
 
Dades de taula per Desembre 22, 2017
Temps Temperatura Punt de rosada Pression baro Vent Wind Speed RĂ fegues de vent Humitat Rainfall Rate (Hourly)
-17.8 °C -17.8 °C 0 hPa Calm     Humidity % 0 mm
00:03 -14.7 °C -18.3 °C 35001.1 hPa WSW 6 km/h 6 km/h 63 % 0 mm
00:05 -14.7 °C -18.2 °C 35001.1 hPa WSW 6.3 km/h 6.3 km/h 64 % 0 mm
00:06 -14.7 °C -18.2 °C 35001.1 hPa West 6.3 km/h 6.3 km/h 64 % 0 mm
00:15 -14.9 °C -18.2 °C 34899.5 hPa NNE 2.6 km/h 7.7 km/h 65 % 0 mm
00:35 -15 °C -18.4 °C 34899.5 hPa NNE 2.6 km/h 7.7 km/h 65 % 0 mm
00:55 -15 °C -18.2 °C 34899.5 hPa WNW 2.6 km/h 7.7 km/h 66 % 0 mm
01:05 -15.1 °C -18.3 °C 34899.5 hPa NNE 2.6 km/h 10.3 km/h 66 % 0 mm
01:15 -15.1 °C -18.3 °C 34899.5 hPa North 5.1 km/h 5.1 km/h 66 % 0 mm
01:25 -15.3 °C -18.5 °C 34899.5 hPa West 2.6 km/h 2.6 km/h 66 % 0 mm
01:35 -15.3 °C -18.5 °C 34899.5 hPa WSW 5.1 km/h 5.1 km/h 66 % 0 mm
01:55 -15.2 °C -18.3 °C 34899.5 hPa NNE 2.6 km/h 5.1 km/h 67 % 0 mm
02:05 -15.2 °C -18.3 °C 34946.9 hPa NNE 2.6 km/h 5.1 km/h 67 % 0 mm
02:15 -15.2 °C -18.3 °C 34946.9 hPa NNW 2.6 km/h 7.7 km/h 67 % 0 mm
02:25 -15.3 °C -18.4 °C 34899.5 hPa NW 5.1 km/h 5.1 km/h 67 % 0 mm
02:35 -15.3 °C -18.4 °C 34899.5 hPa West 2.6 km/h 7.7 km/h 67 % 0 mm
02:45 -15.1 °C -18.1 °C 34899.5 hPa Calm   2.6 km/h 68 % 0 mm
03:05 -14.4 °C -17.4 °C 34899.5 hPa NNW 2.6 km/h 5.1 km/h 68 % 0 mm
03:15 -14.2 °C -17.4 °C 34899.5 hPa NNE 2.6 km/h 5.1 km/h 67 % 0 mm
03:25 -14.1 °C -17.3 °C 34946.9 hPa NNE 5.1 km/h 5.1 km/h 66 % 0 mm
03:35 -14 °C -17.4 °C 34946.9 hPa NNE 2.6 km/h 7.7 km/h 65 % 0 mm
03:45 -13.8 °C -17.3 °C 34946.9 hPa North 5.1 km/h 12.9 km/h 65 % 0 mm
03:55 -13.7 °C -17.2 °C 34946.9 hPa NNE 5.1 km/h 7.7 km/h 64 % 0 mm
04:05 -13.6 °C -17.2 °C 34946.9 hPa North 5.1 km/h 7.7 km/h 64 % 0 mm
04:15 -13.4 °C -17.1 °C 34946.9 hPa North 5.1 km/h 7.7 km/h 63 % 0 mm
04:20 -13.1 °C -16.8 °C 34899.5 hPa NNE 5.1 km/h 10.3 km/h 63 % 0 mm
10:23 -12.9 °C -16.6 °C 34899.5 hPa ESE 7.6 km/h 7.6 km/h 63 % 0 mm
10:24 -12.9 °C -16.6 °C 34899.5 hPa NNW 6 km/h 6 km/h 63 % 0 mm
10:29 -13 °C -16.8 °C 34946.9 hPa East 9 km/h 9 km/h 62 % 0 mm
10:30 -13 °C -16.8 °C 34946.9 hPa ENE 9 km/h 9 km/h 62 % 0 mm
10:35 -13.2 °C -17.1 °C 34946.9 hPa East 7.6 km/h 7.6 km/h 62 % 0 mm
10:40 -13.2 °C -17 °C 34946.9 hPa NNE 6.3 km/h 6.3 km/h 62 % 0 mm
10:45 -12.8 °C -16.7 °C 34946.9 hPa ENE 11.9 km/h 11.9 km/h 62 % 0 mm
10:46 -12.8 °C -16.6 °C 34946.9 hPa NNE 11.9 km/h 11.9 km/h 62 % 0 mm
10:50 -12.6 °C -16.4 °C 34946.9 hPa NE 6 km/h 6 km/h 62 % 0 mm
10:55 -12.4 °C -16.3 °C 34946.9 hPa ENE 11.9 km/h 11.9 km/h 62 % 0 mm
10:56 -12.4 °C -16.3 °C 34946.9 hPa ENE 11.9 km/h 11.9 km/h 62 % 0 mm
11:01 -12.4 °C -16.4 °C 34946.9 hPa East 15 km/h 15 km/h 61 % 0 mm
11:06 -12.4 °C -16.3 °C 34946.9 hPa ENE 9 km/h 9 km/h 61 % 0 mm
11:08 -12.4 °C -16.3 °C 34946.9 hPa NE 16.1 km/h 16.1 km/h 61 % 0 mm
11:13 -12.4 °C -16.3 °C 34946.9 hPa NNE 11.9 km/h 11.9 km/h 61 % 0 mm
11:15 -12.4 °C -16.3 °C 34946.9 hPa North 6.3 km/h 6.3 km/h 61 % 0 mm
11:19 -12.4 °C -16.5 °C 34946.9 hPa North 9 km/h 9 km/h 60 % 0 mm
11:24 -12.3 °C -16.4 °C 34946.9 hPa NNW 15 km/h 15 km/h 60 % 0 mm
11:28 -12.2 °C -16.3 °C 34946.9 hPa NE 6 km/h 8 km/h 60 % 0 mm
11:29 -12.2 °C -16.3 °C 34946.9 hPa ENE 9.8 km/h 9.8 km/h 60 % 0 mm
11:34 -12.1 °C -16.2 °C 34946.9 hPa NNE 9 km/h 9 km/h 60 % 0 mm
11:36 -12.1 °C -16.2 °C 34946.9 hPa NE 6 km/h 6.8 km/h 60 % 0 mm
11:37 -12.1 °C -16.2 °C 34946.9 hPa East 9 km/h 9 km/h 60 % 0 mm
11:42 -12 °C -16.2 °C 34967.2 hPa ENE 7.6 km/h 7.6 km/h 60 % 0 mm
11:43 -11.9 °C -16.1 °C 34967.2 hPa NE 7.6 km/h 7.6 km/h 60 % 0 mm
11:48 -11.9 °C -16.2 °C 34967.2 hPa East 11.9 km/h 11.9 km/h 59 % 0 mm
11:53 -11.9 °C -16 °C 34967.2 hPa North 6 km/h 6 km/h 60 % 0 mm
11:54 -11.8 °C -16.1 °C 34967.2 hPa East 7.6 km/h 7.6 km/h 59 % 0 mm
11:59 -11.8 °C -16.1 °C 34946.9 hPa South 11.9 km/h 11.9 km/h 59 % 0 mm
12:01 -11.8 °C -16.1 °C 34946.9 hPa NNE 11.9 km/h 11.9 km/h 59 % 0 mm
12:07 -11.7 °C -16 °C 34946.9 hPa NNE 15 km/h 15 km/h 59 % 0 mm
12:08 -11.7 °C -16 °C 34946.9 hPa ENE 11.9 km/h 11.9 km/h 59 % 0 mm
12:12 -11.6 °C -15.8 °C 34946.9 hPa ENE 6 km/h 6 km/h 59 % 0 mm
12:17 -11.6 °C -16 °C 34946.9 hPa ENE 11.9 km/h 11.9 km/h 58 % 0 mm
12:18 -11.6 °C -16 °C 34946.9 hPa North 11.9 km/h 11.9 km/h 58 % 0 mm
12:19 -11.6 °C -16 °C 34946.9 hPa ENE 15 km/h 15 km/h 58 % 0 mm
12:23 -11.5 °C -15.9 °C 34946.9 hPa East 9 km/h 9 km/h 58 % 0 mm
12:28 -11.4 °C -15.9 °C 34946.9 hPa East 6 km/h 6.3 km/h 58 % 0 mm
12:30 -11.4 °C -15.8 °C 34946.9 hPa WNW 9 km/h 9 km/h 58 % 0 mm
12:33 -11.4 °C -15.9 °C 34946.9 hPa ENE 11.9 km/h 11.9 km/h 58 % 0 mm
12:38 -11.5 °C -16.1 °C 34946.9 hPa NNW 11.1 km/h 11.1 km/h 57 % 0 mm
12:43 -11.5 °C -16.1 °C 34899.5 hPa NNE 11.9 km/h 11.9 km/h 57 % 0 mm
12:44 -11.5 °C -16.1 °C 34899.5 hPa NNE 9 km/h 9 km/h 57 % 0 mm
12:49 -11.4 °C -16 °C 34899.5 hPa NE 11.9 km/h 11.9 km/h 57 % 0 mm
12:50 -11.4 °C -16 °C 34899.5 hPa North 7.6 km/h 7.6 km/h 57 % 0 mm
12:55 -11.4 °C -15.9 °C 34899.5 hPa NE 6 km/h 6 km/h 57 % 0 mm
13:00 -11.4 °C -15.9 °C 34899.5 hPa NNE 9 km/h 9 km/h 57 % 0 mm
13:04 -11.3 °C -15.9 °C 34899.5 hPa NNE 4.2 km/h 4.2 km/h 57 % 0 mm
13:07 -11.2 °C -15.8 °C 34899.5 hPa NNE 6 km/h 6 km/h 57 % 0 mm
13:11 -11.2 °C -15.8 °C 34899.5 hPa ENE 6 km/h 6 km/h 57 % 0 mm
13:13 -11.2 °C -15.8 °C 34899.5 hPa NE 15 km/h 15 km/h 57 % 0 mm
13:18 -11.2 °C -15.8 °C 34899.5 hPa NNE 9 km/h 9 km/h 57 % 0 mm
13:26 -11.2 °C -15.7 °C 34899.5 hPa ESE 11.9 km/h 11.9 km/h 57 % 0 mm
13:31 -11.2 °C -15.9 °C 34899.5 hPa NNE 15 km/h 15 km/h 56 % 0 mm
13:32 -11.2 °C -15.9 °C 34899.5 hPa NE 17.9 km/h 17.9 km/h 56 % 0 mm
13:33 -11.2 °C -15.9 °C 34899.5 hPa NNE 11.9 km/h 11.9 km/h 56 % 0 mm
13:38 -11.2 °C -15.9 °C 34899.5 hPa NW 6 km/h 6 km/h 56 % 0 mm
13:43 -11.1 °C -15.7 °C 34899.5 hPa WNW 6.3 km/h 6.3 km/h 57 % 0 mm
13:44 -11.1 °C -15.7 °C 34899.5 hPa NE 6 km/h 6 km/h 57 % 0 mm
13:46 -11.1 °C -15.8 °C 34899.5 hPa ENE 9.8 km/h 9.8 km/h 56 % 0 mm
13:49 -11.1 °C -15.8 °C 34899.5 hPa NNE 9.8 km/h 9.8 km/h 56 % 0 mm
13:53 -11.1 °C -15.8 °C 34899.5 hPa ENE 9 km/h 9 km/h 56 % 0 mm
14:00 -11.1 °C -15.7 °C 34899.5 hPa ENE 6 km/h 6.3 km/h 57 % 0 mm
14:05 -11.1 °C -15.8 °C 34899.5 hPa NNE 15 km/h 15 km/h 56 % 0 mm
14:07 -11.1 °C -15.8 °C 34899.5 hPa ENE 9 km/h 9 km/h 56 % 0 mm
14:08 -11.1 °C -15.8 °C 34899.5 hPa NNE 9 km/h 9 km/h 56 % 0 mm
14:13 -11.1 °C -15.7 °C 34875.8 hPa NNE 8 km/h 8 km/h 57 % 0 mm
14:14 -11.1 °C -15.7 °C 34875.8 hPa NNE 17.9 km/h 17.9 km/h 57 % 0 mm
14:18 -11.1 °C -15.8 °C 34875.8 hPa NNE 15 km/h 15 km/h 56 % 0 mm
14:20 -11.1 °C -15.8 °C 34875.8 hPa NNW 9.8 km/h 9.8 km/h 56 % 0 mm
14:25 -11 °C -15.6 °C 34875.8 hPa NNE 11.9 km/h 11.9 km/h 57 % 0 mm
14:26 -11 °C -15.6 °C 34875.8 hPa NNE 11.9 km/h 11.9 km/h 57 % 0 mm
14:31 -11 °C -15.7 °C 34875.8 hPa NW 9 km/h 9 km/h 56 % 0 mm
14:32 -11 °C -15.7 °C 34875.8 hPa North 9 km/h 9 km/h 56 % 0 mm
14:37 -11 °C -15.6 °C 34875.8 hPa ENE 6 km/h 6 km/h 57 % 0 mm
14:39 -11 °C -15.6 °C 34875.8 hPa East 6 km/h 6 km/h 57 % 0 mm
14:44 -11 °C -15.7 °C 34875.8 hPa NNE 6 km/h 6 km/h 56 % 0 mm
14:53 -10.9 °C -15.5 °C 34875.8 hPa NNE 3.1 km/h   57 % 0 mm
14:54 -10.9 °C -15.5 °C 34875.8 hPa NW 2.3 km/h 2.3 km/h 57 % 0 mm
14:59 -10.8 °C -15.4 °C 34875.8 hPa North 3.1 km/h 3.1 km/h 57 % 0 mm
15:04 -10.8 °C -15.6 °C 34875.8 hPa NNE 6 km/h 6 km/h 56 % 0 mm
15:05 -10.8 °C -15.6 °C 34875.8 hPa NNE 6 km/h 6 km/h 56 % 0 mm
15:06 -10.8 °C -15.6 °C 34875.8 hPa ENE 6 km/h 6 km/h 56 % 0 mm
15:16 -10.9 °C -15.7 °C 34875.8 hPa ENE 16.1 km/h 16.1 km/h 56 % 0 mm
15:17 -10.9 °C -15.7 °C 34875.8 hPa NNE 15 km/h 15 km/h 56 % 0 mm
15:22 -11 °C -15.7 °C 34875.8 hPa NW 6 km/h 6 km/h 56 % 0 mm
15:26 -10.9 °C -15.7 °C 34875.8 hPa North 3.1 km/h 3.1 km/h 56 % 0 mm
15:33 -10.9 °C -15.7 °C 34875.8 hPa NNE 3.7 km/h   56 % 0 mm
15:34 -10.9 °C -15.7 °C 34875.8 hPa ENE 6 km/h 6 km/h 56 % 0 mm
15:38 -11 °C -15.7 °C 34875.8 hPa ENE 3.7 km/h 3.7 km/h 56 % 0 mm
15:41 -11 °C -15.7 °C 34875.8 hPa West 6 km/h 6 km/h 56 % 0 mm
15:43 -11.1 °C -15.8 °C 34875.8 hPa ENE 6 km/h 6 km/h 56 % 0 mm
15:48 -11.1 °C -15.8 °C 34875.8 hPa NNE 3.1 km/h 3.1 km/h 56 % 0 mm
15:50 -11.1 °C -15.8 °C 34875.8 hPa NNE 3.1 km/h   56 % 0 mm
15:53 -11.1 °C -15.8 °C 34875.8 hPa NNE 6 km/h 6 km/h 56 % 0 mm
15:55 -11.1 °C -15.8 °C 34875.8 hPa SSE 3.1 km/h 3.1 km/h 56 % 0 mm
15:59 -11.1 °C -16 °C 34875.8 hPa WNW 6 km/h 6 km/h 55 % 0 mm
16:01 -11.1 °C -16 °C 34875.8 hPa WNW 6 km/h 6 km/h 55 % 0 mm
16:06 -11.2 °C -16.1 °C 34875.8 hPa North 4.2 km/h 4.2 km/h 55 % 0 mm
16:11 -11.2 °C -15.9 °C 34875.8 hPa NW 6 km/h 6 km/h 56 % 0 mm
16:17 -11.2 °C -16.1 °C 34875.8 hPa Calm     55 % 0 mm
16:18 -11.2 °C -16.1 °C 34875.8 hPa Calm     55 % 0 mm
16:23 -11.2 °C -16.1 °C 34875.8 hPa NE 4.2 km/h 4.2 km/h 55 % 0 mm
16:25 -11.2 °C -16.1 °C 34875.8 hPa NNE 4.2 km/h 4.2 km/h 55 % 0 mm
16:30 -11.2 °C -16.1 °C 34875.8 hPa ENE 6 km/h 6 km/h 55 % 0 mm
16:31 -11.2 °C -16.1 °C 34875.8 hPa NE 6 km/h 6 km/h 55 % 0 mm
16:36 -11.3 °C -16.2 °C 34875.8 hPa ENE 3.1 km/h 3.1 km/h 55 % 0 mm
16:37 -11.3 °C -16.2 °C 34875.8 hPa ENE 3.1 km/h 3.1 km/h 55 % 0 mm
16:42 -11.3 °C -16.1 °C 34875.8 hPa NNE 3.7 km/h 3.7 km/h 56 % 0 mm
16:47 -11.4 °C -16.2 °C 34875.8 hPa NNW 3.1 km/h   55 % 0 mm
16:50 -11.4 °C -16.2 °C 34875.8 hPa NNW 3.1 km/h   55 % 0 mm
16:53 -11.4 °C -16.2 °C 34875.8 hPa Calm     55 % 0 mm
16:55 -11.4 °C -16.2 °C 34841.9 hPa North 3.1 km/h   55 % 0 mm
16:58 -11.4 °C -16.2 °C 34841.9 hPa Calm     55 % 0 mm
17:03 -11.4 °C -16.2 °C 34841.9 hPa Calm     56 % 0 mm
17:05 -11.4 °C -16.2 °C 34841.9 hPa Calm     56 % 0 mm
17:10 -11.4 °C -16.2 °C 34875.8 hPa Calm     56 % 0 mm
17:13 -11.4 °C -16.2 °C 34875.8 hPa West 6 km/h 6 km/h 56 % 0 mm
17:14 -11.4 °C -16.2 °C 34875.8 hPa Calm     56 % 0 mm
17:18 -11.5 °C -16.2 °C 34875.8 hPa Calm     56 % 0 mm
17:22 -11.5 °C -16.2 °C 34875.8 hPa WNW 6 km/h 6 km/h 56 % 0 mm
17:23 -11.6 °C -16.3 °C 34875.8 hPa WNW 3.1 km/h   56 % 0 mm
17:28 -11.6 °C -16.3 °C 34875.8 hPa WNW 3.1 km/h   56 % 0 mm
17:30 -11.6 °C -16.3 °C 34875.8 hPa West 2.3 km/h   56 % 0 mm
17:35 -11.7 °C -16.3 °C 34875.8 hPa WSW 4.2 km/h 4.2 km/h 56 % 0 mm
17:37 -11.7 °C -16.6 °C 34875.8 hPa West 6 km/h 6 km/h 55 % 0 mm
17:40 -11.7 °C -16.6 °C 34875.8 hPa WNW 5.1 km/h 10.3 km/h 55 % 0 mm
17:44 -11.8 °C -16.6 °C 34875.8 hPa WSW 3.1 km/h 3.1 km/h 55 % 0 mm
17:46 -11.8 °C -16.7 °C 34875.8 hPa West 3.1 km/h 3.7 km/h 55 % 0 mm
17:49 -11.8 °C -16.7 °C 34875.8 hPa WSW 6 km/h 6 km/h 55 % 0 mm
17:54 -11.9 °C -16.7 °C 34875.8 hPa WSW 6 km/h   55 % 0 mm
17:55 -11.9 °C -16.8 °C 34875.8 hPa SSW 6 km/h 6 km/h 55 % 0 mm
17:59 -12 °C -16.8 °C 34875.8 hPa SSE 3.1 km/h   55 % 0 mm
18:02 -12 °C -16.8 °C 34875.8 hPa West 6 km/h 6 km/h 55 % 0 mm
18:05 -12.1 °C -16.8 °C 34875.8 hPa SW 6 km/h 6 km/h 55 % 0 mm
18:10 -12.1 °C -16.8 °C 34899.5 hPa NW 9 km/h 9 km/h 55 % 0 mm
18:11 -12.1 °C -16.9 °C 34899.5 hPa West 9 km/h 9 km/h 55 % 0 mm
18:17 -12.1 °C -16.9 °C 34899.5 hPa West 7.6 km/h 7.6 km/h 55 % 0 mm
18:20 -12.1 °C -16.9 °C 34899.5 hPa NW 6.3 km/h 6.3 km/h 55 % 0 mm
18:25 -14.1 °C -17.4 °C 34946.9 hPa WNW 2.6 km/h 5.1 km/h 65 % 0 mm
18:26 -12.2 °C -17 °C 34899.5 hPa Calm     55 % 0 mm
18:29 -12.2 °C -17 °C 34899.5 hPa Calm     55 % 0 mm
18:34 -12.2 °C -17 °C 34899.5 hPa West 11.9 km/h 11.9 km/h 55 % 0 mm
18:35 -14.1 °C -17.4 °C 34946.9 hPa Calm   2.6 km/h 66 % 0 mm
18:36 -12.2 °C -17 °C 34899.5 hPa East 6 km/h 6 km/h 55 % 0 mm
18:38 -12.2 °C -17 °C 34899.5 hPa West 9 km/h 9 km/h 55 % 0 mm
18:41 -12.2 °C -16.9 °C 34899.5 hPa NNE 6 km/h 6 km/h 56 % 0 mm
18:45 -14.2 °C -17.4 °C 34946.9 hPa Calm   5.1 km/h 66 % 0 mm
18:46 -12.2 °C -16.9 °C 34899.5 hPa NE 9 km/h 9 km/h 56 % 0 mm
18:48 -12.2 °C -16.9 °C 34899.5 hPa SW 9.8 km/h 9.8 km/h 56 % 0 mm
18:50 -12.2 °C -16.9 °C 34899.5 hPa WSW 11.9 km/h 11.9 km/h 56 % 0 mm
18:54 -12.2 °C -16.9 °C 34899.5 hPa SE 11.9 km/h 11.9 km/h 56 % 0 mm
18:55 -14.2 °C -17.4 °C 34899.5 hPa North 2.6 km/h 5.1 km/h 66 % 0 mm
18:59 -12.3 °C -17 °C 34899.5 hPa NE 6 km/h 6 km/h 56 % 0 mm
19:02 -12.4 °C -17.1 °C 34899.5 hPa ENE 9.8 km/h 9.8 km/h 56 % 0 mm
19:05 -14.3 °C -17.6 °C 34946.9 hPa North 2.6 km/h 5.1 km/h 66 % 0 mm
19:07 -12.4 °C -17.1 °C 34899.5 hPa West 6 km/h 6 km/h 56 % 0 mm
19:12 -12.4 °C -17.1 °C 34899.5 hPa NW 15 km/h 15 km/h 56 % 0 mm
19:13 -12.4 °C -17.1 °C 34899.5 hPa NE 6 km/h   56 % 0 mm
19:14 -12.4 °C -17.1 °C 34899.5 hPa ENE 6 km/h   56 % 0 mm
19:15 -14.4 °C -17.7 °C 34946.9 hPa Calm   5.1 km/h 66 % 0 mm
19:19 -12.6 °C -17.1 °C 34899.5 hPa NNE 5.6 km/h   57 % 0 mm
19:20 -12.6 °C -17.1 °C 34899.5 hPa ENE 6 km/h 6 km/h 57 % 0 mm
19:25 -12.7 °C -17.2 °C 34899.5 hPa WNW 6 km/h   57 % 0 mm
19:27 -12.7 °C -17.2 °C 34899.5 hPa WNW 3.1 km/h 3.1 km/h 57 % 0 mm
19:32 -12.7 °C -17.2 °C 34899.5 hPa NNE 6 km/h 6 km/h 57 % 0 mm
19:35 -14.4 °C -17.6 °C 34946.9 hPa NE 5.1 km/h 7.7 km/h 67 % 0 mm
19:38 -12.8 °C -17.3 °C 34899.5 hPa ENE 2.3 km/h   57 % 0 mm
19:43 -12.8 °C -17.3 °C 34899.5 hPa ENE 4.2 km/h   57 % 0 mm
19:44 -12.8 °C -17.3 °C 34899.5 hPa North 5.1 km/h   57 % 0 mm
19:45 -14.6 °C -17.7 °C 34946.9 hPa NNE 2.6 km/h 7.7 km/h 67 % 0 mm
19:49 -12.9 °C -17.2 °C 34899.5 hPa NE 4.2 km/h 4.2 km/h 58 % 0 mm
19:50 -12.9 °C -17.2 °C 34899.5 hPa North 3.1 km/h 3.1 km/h 58 % 0 mm
19:55 -12.9 °C -17.3 °C 34899.5 hPa ENE 6 km/h 6 km/h 58 % 0 mm
20:00 -13 °C -17.3 °C 34899.5 hPa NNE 3.1 km/h 4.2 km/h 58 % 0 mm
20:03 -13 °C -17.3 °C 34899.5 hPa ENE 6 km/h 6 km/h 58 % 0 mm
20:05 -13 °C -17.3 °C 34899.5 hPa North 2.6 km/h 7.7 km/h 58 % 0 mm
20:10 -13.1 °C -17.3 °C 34899.5 hPa ENE 9 km/h 9 km/h 59 % 0 mm
20:15 -13.1 °C -17.3 °C 34899.5 hPa West 3.1 km/h   59 % 0 mm
20:18 -13.1 °C -17.3 °C 34899.5 hPa NNW 3.1 km/h 3.1 km/h 59 % 0 mm
20:24 -13.2 °C -17.4 °C 34899.5 hPa WNW 3.1 km/h 3.1 km/h 59 % 0 mm
20:25 -14.7 °C -17.7 °C 34946.9 hPa West 2.6 km/h 5.1 km/h 68 % 0 mm
20:34 -13.2 °C -17.2 °C 34946.9 hPa North 7.6 km/h 7.6 km/h 60 % 0 mm
20:35 -14.7 °C -17.7 °C 34946.9 hPa West 2.6 km/h 5.1 km/h 68 % 0 mm
20:36 -13.2 °C -17.2 °C 34946.9 hPa SE 6 km/h 6 km/h 60 % 0 mm
20:37 -13.2 °C -17.2 °C 34946.9 hPa SE 3.1 km/h 3.1 km/h 60 % 0 mm
20:42 -13.2 °C -17.2 °C 34946.9 hPa East 6 km/h 6 km/h 60 % 0 mm
20:43 -13.2 °C -17.2 °C 34946.9 hPa ENE 6 km/h 6 km/h 60 % 0 mm
20:45 -14.7 °C -17.7 °C 34946.9 hPa NNW 7.7 km/h 10.3 km/h 68 % 0 mm
20:48 -13.2 °C -17.2 °C 34946.9 hPa NE 9 km/h 9 km/h 61 % 0 mm
20:49 -13.2 °C -17.2 °C 34946.9 hPa NE 9 km/h 9 km/h 61 % 0 mm
20:53 -13.2 °C -17.2 °C 34946.9 hPa ESE 3.1 km/h 3.1 km/h 61 % 0 mm
20:55 -14.8 °C -17.8 °C 34946.9 hPa NNE 2.6 km/h 10.3 km/h 68 % 0 mm
20:57 -13.3 °C -17.2 °C 34946.9 hPa ESE 3.1 km/h 3.1 km/h 61 % 0 mm
20:58 -13.3 °C -17.2 °C 34946.9 hPa NNE 6 km/h 6 km/h 61 % 0 mm
21:05 -14.9 °C -17.9 °C 34946.9 hPa Calm   5.1 km/h 68 % 0 mm
21:06 -13.3 °C -17.3 °C 34946.9 hPa NW 3.1 km/h 3.1 km/h 61 % 0 mm
21:07 -13.3 °C -17.3 °C 34946.9 hPa NW 3.1 km/h 3.1 km/h 61 % 0 mm
21:12 -13.3 °C -17.3 °C 34946.9 hPa NNE 5.1 km/h 5.1 km/h 61 % 0 mm
21:13 -13.3 °C -17.3 °C 34946.9 hPa SW 6 km/h 6 km/h 61 % 0 mm
21:15 -14.9 °C -17.9 °C 34946.9 hPa NW 2.6 km/h 2.6 km/h 68 % 0 mm
21:18 -13.4 °C -17.3 °C 34946.9 hPa ENE 3.7 km/h 3.7 km/h 61 % 0 mm
21:20 -13.4 °C -17.3 °C 34946.9 hPa WNW 6 km/h 6 km/h 61 % 0 mm
21:21 -13.4 °C -17.3 °C 34946.9 hPa NNE 9 km/h 9 km/h 61 % 0 mm
21:25 -13.4 °C -17.3 °C 34946.9 hPa West 3.1 km/h 3.1 km/h 62 % 0 mm
21:28 -13.4 °C -17.3 °C 34946.9 hPa NW 9 km/h 9 km/h 62 % 0 mm
21:35 -15 °C -17.9 °C 34946.9 hPa NW 2.6 km/h 5.1 km/h 69 % 0 mm
21:38 -13.5 °C -17.3 °C 34946.9 hPa NNW 6 km/h 6 km/h 62 % 0 mm
21:40 -13.5 °C -17.3 °C 34899.5 hPa West 6.3 km/h 6.3 km/h 62 % 0 mm
21:45 -13.6 °C -17.3 °C 34899.5 hPa WNW 3.1 km/h 3.1 km/h 62 % 0 mm
21:50 -13.6 °C -17.4 °C 34899.5 hPa West 3.7 km/h 3.7 km/h 62 % 0 mm
21:52 -13.6 °C -17.4 °C 34899.5 hPa SE 6 km/h 6 km/h 62 % 0 mm
21:55 -14.9 °C -17.7 °C 34946.9 hPa NE 5.1 km/h 5.1 km/h 70 % 0 mm
21:57 -13.6 °C -17.3 °C 34946.9 hPa West 9 km/h 9 km/h 62 % 0 mm
21:58 -13.6 °C -17.3 °C 34946.9 hPa West 9 km/h 9 km/h 62 % 0 mm
22:05 -15 °C -17.8 °C 34946.9 hPa NNE 2.6 km/h 5.1 km/h 70 % 0 mm
22:07 -13.6 °C -17.2 °C 34946.9 hPa WNW 9 km/h 9 km/h 63 % 0 mm
22:08 -13.6 °C -17.4 °C 34946.9 hPa ESE 6 km/h 6 km/h 62 % 0 mm
22:14 -13.6 °C -17.4 °C 34946.9 hPa WNW 6 km/h 6 km/h 62 % 0 mm
22:15 -15 °C -17.8 °C 34946.9 hPa NNE 2.6 km/h 5.1 km/h 70 % 0 mm
22:19 -13.7 °C -17.4 °C 34946.9 hPa SW 6 km/h 6 km/h 62 % 0 mm
22:23 -13.7 °C -17.3 °C 34946.9 hPa NW 6 km/h 6 km/h 63 % 0 mm
22:24 -13.7 °C -17.3 °C 34946.9 hPa WNW 6 km/h 6 km/h 63 % 0 mm
22:25 -15 °C -17.8 °C 34899.5 hPa NE 2.6 km/h 5.1 km/h 70 % 0 mm
22:29 -13.7 °C -17.3 °C 34946.9 hPa WSW 6 km/h 6 km/h 63 % 0 mm
22:30 -13.7 °C -17.3 °C 34946.9 hPa South 6 km/h 6 km/h 63 % 0 mm
22:35 -13.7 °C -17.4 °C 34946.9 hPa West 6 km/h 6 km/h 63 % 0 mm
22:36 -13.7 °C -17.4 °C 34946.9 hPa West 6 km/h 6 km/h 63 % 0 mm
22:38 -13.7 °C -17.4 °C 34946.9 hPa Calm     63 % 0 mm
22:41 -13.8 °C -17.4 °C 34946.9 hPa West 3.1 km/h   63 % 0 mm
22:45 -15.2 °C -17.9 °C 34899.5 hPa NW 2.6 km/h 7.7 km/h 70 % 0 mm
22:46 -13.8 °C -17.5 °C 34946.9 hPa Calm     63 % 0 mm
22:47 -13.8 °C -17.5 °C 34946.9 hPa Calm     63 % 0 mm
22:49 -13.9 °C -17.6 °C 34946.9 hPa Calm     63 % 0 mm
22:53 -13.9 °C -17.6 °C 34946.9 hPa Calm     63 % 0 mm
22:55 -15.2 °C -17.9 °C 34899.5 hPa NW 2.6 km/h 7.7 km/h 70 % 0 mm
22:58 -13.9 °C -17.6 °C 34946.9 hPa West 3.1 km/h 3.1 km/h 63 % 0 mm
23:01 -13.9 °C -17.4 °C 34946.9 hPa Calm     64 % 0 mm
23:05 -15.1 °C -17.7 °C 34946.9 hPa NNE 2.6 km/h 12.9 km/h 71 % 0 mm
23:07 -13.9 °C -17.4 °C 34946.9 hPa West 3.1 km/h 3.1 km/h 64 % 0 mm
23:12 -13.9 °C -17.4 °C 34946.9 hPa NNE 9 km/h 9 km/h 64 % 0 mm
23:15 -15.1 °C -17.8 °C 34946.9 hPa Calm   7.7 km/h 71 % 0 mm
23:17 -13.9 °C -17.4 °C 34946.9 hPa NW 6.3 km/h 6.3 km/h 64 % 0 mm
23:18 -13.9 °C -17.4 °C 34946.9 hPa WNW 9 km/h 9 km/h 64 % 0 mm
23:19 -13.9 °C -17.4 °C 34946.9 hPa NNW 6 km/h 6 km/h 64 % 0 mm
23:24 -13.9 °C -17.4 °C 34946.9 hPa WNW 6 km/h 6 km/h 64 % 0 mm
23:25 -13.9 °C -17.4 °C 34946.9 hPa NNE 6.3 km/h 6.3 km/h 64 % 0 mm
23:29 -13.9 °C -17.4 °C 34946.9 hPa SE 9 km/h 9 km/h 64 % 0 mm
23:35 -15.1 °C -17.7 °C 34946.9 hPa Calm   5.1 km/h 72 % 0 mm
23:36 -13.9 °C -17.4 °C 34946.9 hPa NNW 3.1 km/h   64 % 0 mm
23:37 -13.9 °C -17.4 °C 34946.9 hPa Calm     64 % 0 mm
23:41 -13.9 °C -17.4 °C 34946.9 hPa Calm     64 % 0 mm
23:45 -15.2 °C -17.9 °C 34946.9 hPa NNW 2.6 km/h 5.1 km/h 71 % 0 mm
23:46 -13.9 °C -17.4 °C 34946.9 hPa Calm     64 % 0 mm
23:48 -13.9 °C -17.4 °C 34946.9 hPa Calm     64 % 0 mm
23:52 -13.9 °C -17.4 °C 34946.9 hPa Calm     64 % 0 mm
23:55 -15.3 °C -17.8 °C 34899.5 hPa WNW 2.6 km/h 5.1 km/h 72 % 0 mm
23:57 -13.9 °C -17.4 °C 34946.9 hPa Calm     64 % 0 mm
23:59 -13.9 °C -17.4 °C 34946.9 hPa Calm     64 % 0 mm
Meteo Sesrovires
Elogis d' Weather Underground - 2 mb

Guio original per  Jim McMurry - jmcmurry@mwt.net Adaptat per a la plantilla per  Wim van der Kuil - Leuven-Template.eu

Trobareu la nostra informacio del temps tambe a:

Weather Underground

AWEKAS